sensor_id;sensor_type;location;lat;lon;timestamp;P1;durP1;ratioP1;P2;durP2;ratioP2
62616;SDS011;76316;51.190;6.808;2024-03-06T00:00:46;5.40;;;1.85;;
62616;SDS011;76316;51.190;6.808;2024-03-06T00:03:12;3.13;;;1.58;;
62616;SDS011;76316;51.190;6.808;2024-03-06T00:05:37;2.63;;;1.92;;
62616;SDS011;76316;51.190;6.808;2024-03-06T00:08:02;5.35;;;1.77;;
62616;SDS011;76316;51.190;6.808;2024-03-06T00:10:28;5.05;;;2.03;;
62616;SDS011;76316;51.190;6.808;2024-03-06T00:12:54;5.63;;;2.00;;
62616;SDS011;76316;51.190;6.808;2024-03-06T00:15:19;3.45;;;1.83;;
62616;SDS011;76316;51.190;6.808;2024-03-06T00:17:45;4.43;;;1.60;;
62616;SDS011;76316;51.190;6.808;2024-03-06T00:20:10;5.22;;;1.75;;
62616;SDS011;76316;51.190;6.808;2024-03-06T00:22:36;3.63;;;2.05;;
62616;SDS011;76316;51.190;6.808;2024-03-06T00:25:02;5.30;;;1.88;;
62616;SDS011;76316;51.190;6.808;2024-03-06T00:27:28;3.30;;;1.60;;
62616;SDS011;76316;51.190;6.808;2024-03-06T00:29:53;6.85;;;2.20;;
62616;SDS011;76316;51.190;6.808;2024-03-06T00:32:18;2.88;;;2.00;;
62616;SDS011;76316;51.190;6.808;2024-03-06T00:34:44;4.10;;;1.90;;
62616;SDS011;76316;51.190;6.808;2024-03-06T00:37:09;3.80;;;1.80;;
62616;SDS011;76316;51.190;6.808;2024-03-06T00:39:35;5.03;;;2.03;;
62616;SDS011;76316;51.190;6.808;2024-03-06T00:42:00;3.88;;;1.92;;
62616;SDS011;76316;51.190;6.808;2024-03-06T00:44:26;3.90;;;1.88;;
62616;SDS011;76316;51.190;6.808;2024-03-06T00:46:51;4.13;;;1.90;;
62616;SDS011;76316;51.190;6.808;2024-03-06T00:49:17;7.45;;;2.00;;
62616;SDS011;76316;51.190;6.808;2024-03-06T00:51:42;3.53;;;1.83;;
62616;SDS011;76316;51.190;6.808;2024-03-06T00:54:07;3.72;;;2.03;;
62616;SDS011;76316;51.190;6.808;2024-03-06T00:56:36;4.68;;;1.90;;
62616;SDS011;76316;51.190;6.808;2024-03-06T00:59:04;3.20;;;1.80;;
62616;SDS011;76316;51.190;6.808;2024-03-06T01:01:29;5.65;;;1.92;;
62616;SDS011;76316;51.190;6.808;2024-03-06T01:03:55;4.10;;;2.03;;
62616;SDS011;76316;51.190;6.808;2024-03-06T01:06:20;3.58;;;1.80;;
62616;SDS011;76316;51.190;6.808;2024-03-06T01:08:46;3.72;;;1.85;;
62616;SDS011;76316;51.190;6.808;2024-03-06T01:11:11;3.90;;;2.00;;
62616;SDS011;76316;51.190;6.808;2024-03-06T01:13:39;2.50;;;1.52;;
62616;SDS011;76316;51.190;6.808;2024-03-06T01:16:05;3.97;;;1.80;;
62616;SDS011;76316;51.190;6.808;2024-03-06T01:18:31;2.53;;;1.60;;
62616;SDS011;76316;51.190;6.808;2024-03-06T01:20:57;2.58;;;1.80;;
62616;SDS011;76316;51.190;6.808;2024-03-06T01:23:23;3.17;;;2.03;;
62616;SDS011;76316;51.190;6.808;2024-03-06T01:25:48;4.72;;;1.83;;
62616;SDS011;76316;51.190;6.808;2024-03-06T01:28:14;2.83;;;1.98;;
62616;SDS011;76316;51.190;6.808;2024-03-06T01:30:39;3.22;;;2.05;;
62616;SDS011;76316;51.190;6.808;2024-03-06T01:33:05;3.03;;;1.73;;
62616;SDS011;76316;51.190;6.808;2024-03-06T01:35:30;4.18;;;1.92;;
62616;SDS011;76316;51.190;6.808;2024-03-06T01:37:55;2.80;;;1.67;;
62616;SDS011;76316;51.190;6.808;2024-03-06T01:40:21;3.72;;;1.90;;
62616;SDS011;76316;51.190;6.808;2024-03-06T01:42:46;2.90;;;1.60;;
62616;SDS011;76316;51.190;6.808;2024-03-06T01:45:14;3.13;;;1.70;;
62616;SDS011;76316;51.190;6.808;2024-03-06T01:47:39;3.05;;;1.85;;
62616;SDS011;76316;51.190;6.808;2024-03-06T01:50:05;3.30;;;1.70;;
62616;SDS011;76316;51.190;6.808;2024-03-06T01:52:34;2.40;;;1.67;;
62616;SDS011;76316;51.190;6.808;2024-03-06T01:55:00;4.43;;;1.88;;
62616;SDS011;76316;51.190;6.808;2024-03-06T01:57:27;3.25;;;1.90;;
62616;SDS011;76316;51.190;6.808;2024-03-06T01:59:53;3.35;;;1.92;;
62616;SDS011;76316;51.190;6.808;2024-03-06T02:02:19;2.78;;;1.85;;
62616;SDS011;76316;51.190;6.808;2024-03-06T02:04:46;3.47;;;1.90;;
62616;SDS011;76316;51.190;6.808;2024-03-06T02:07:12;2.40;;;1.65;;
62616;SDS011;76316;51.190;6.808;2024-03-06T02:09:39;4.13;;;1.95;;
62616;SDS011;76316;51.190;6.808;2024-03-06T02:12:06;1.63;;;1.50;;
62616;SDS011;76316;51.190;6.808;2024-03-06T02:14:35;5.35;;;1.90;;
62616;SDS011;76316;51.190;6.808;2024-03-06T02:17:02;3.30;;;1.67;;
62616;SDS011;76316;51.190;6.808;2024-03-06T02:19:37;3.00;;;1.92;;
62616;SDS011;76316;51.190;6.808;2024-03-06T02:22:04;4.93;;;2.05;;
62616;SDS011;76316;51.190;6.808;2024-03-06T02:24:31;2.58;;;1.80;;
62616;SDS011;76316;51.190;6.808;2024-03-06T02:26:56;2.78;;;1.75;;
62616;SDS011;76316;51.190;6.808;2024-03-06T02:29:24;2.85;;;1.95;;
62616;SDS011;76316;51.190;6.808;2024-03-06T02:31:50;3.15;;;1.60;;
62616;SDS011;76316;51.190;6.808;2024-03-06T02:34:15;2.38;;;2.00;;
62616;SDS011;76316;51.190;6.808;2024-03-06T02:36:41;2.38;;;1.75;;
62616;SDS011;76316;51.190;6.808;2024-03-06T02:39:07;3.92;;;1.98;;
62616;SDS011;76316;51.190;6.808;2024-03-06T02:41:34;2.33;;;1.65;;
62616;SDS011;76316;51.190;6.808;2024-03-06T02:44:01;2.40;;;1.80;;
62616;SDS011;76316;51.190;6.808;2024-03-06T02:46:27;3.97;;;2.08;;
62616;SDS011;76316;51.190;6.808;2024-03-06T02:48:53;2.47;;;1.90;;
62616;SDS011;76316;51.190;6.808;2024-03-06T02:51:18;3.33;;;1.75;;
62616;SDS011;76316;51.190;6.808;2024-03-06T02:53:44;2.92;;;1.83;;
62616;SDS011;76316;51.190;6.808;2024-03-06T02:56:15;2.85;;;1.70;;
62616;SDS011;76316;51.190;6.808;2024-03-06T02:58:42;2.83;;;1.85;;
62616;SDS011;76316;51.190;6.808;2024-03-06T03:01:07;2.95;;;1.70;;
62616;SDS011;76316;51.190;6.808;2024-03-06T03:03:34;2.00;;;1.77;;
62616;SDS011;76316;51.190;6.808;2024-03-06T03:05:59;2.65;;;1.75;;
62616;SDS011;76316;51.190;6.808;2024-03-06T03:08:26;3.45;;;1.80;;
62616;SDS011;76316;51.190;6.808;2024-03-06T03:10:51;3.20;;;1.95;;
62616;SDS011;76316;51.190;6.808;2024-03-06T03:13:16;3.80;;;1.67;;
62616;SDS011;76316;51.190;6.808;2024-03-06T03:15:42;1.95;;;1.67;;
62616;SDS011;76316;51.190;6.808;2024-03-06T03:18:07;3.95;;;1.95;;
62616;SDS011;76316;51.190;6.808;2024-03-06T03:20:33;1.77;;;1.60;;
62616;SDS011;76316;51.190;6.808;2024-03-06T03:22:59;3.25;;;1.75;;
62616;SDS011;76316;51.190;6.808;2024-03-06T03:25:26;2.95;;;1.60;;
62616;SDS011;76316;51.190;6.808;2024-03-06T03:27:52;4.15;;;1.67;;
62616;SDS011;76316;51.190;6.808;2024-03-06T03:30:17;4.68;;;1.77;;
62616;SDS011;76316;51.190;6.808;2024-03-06T03:32:46;1.88;;;1.50;;
62616;SDS011;76316;51.190;6.808;2024-03-06T03:35:13;1.83;;;1.35;;
62616;SDS011;76316;51.190;6.808;2024-03-06T03:37:39;1.85;;;1.65;;
62616;SDS011;76316;51.190;6.808;2024-03-06T03:40:05;3.33;;;1.60;;
62616;SDS011;76316;51.190;6.808;2024-03-06T03:42:32;1.80;;;1.60;;
62616;SDS011;76316;51.190;6.808;2024-03-06T03:44:57;7.38;;;2.00;;
62616;SDS011;76316;51.190;6.808;2024-03-06T03:47:23;2.22;;;1.55;;
62616;SDS011;76316;51.190;6.808;2024-03-06T03:49:48;2.33;;;1.67;;
62616;SDS011;76316;51.190;6.808;2024-03-06T03:52:13;2.22;;;1.70;;
62616;SDS011;76316;51.190;6.808;2024-03-06T03:54:39;2.45;;;1.60;;
62616;SDS011;76316;51.190;6.808;2024-03-06T03:57:05;3.53;;;2.10;;
62616;SDS011;76316;51.190;6.808;2024-03-06T03:59:31;3.03;;;1.67;;
62616;SDS011;76316;51.190;6.808;2024-03-06T04:01:57;3.72;;;1.60;;
62616;SDS011;76316;51.190;6.808;2024-03-06T04:04:23;3.83;;;1.65;;
62616;SDS011;76316;51.190;6.808;2024-03-06T04:06:49;2.90;;;1.48;;
62616;SDS011;76316;51.190;6.808;2024-03-06T04:09:14;1.92;;;1.50;;
62616;SDS011;76316;51.190;6.808;2024-03-06T04:11:40;1.67;;;1.42;;
62616;SDS011;76316;51.190;6.808;2024-03-06T04:14:05;2.40;;;1.67;;
62616;SDS011;76316;51.190;6.808;2024-03-06T04:16:31;1.83;;;1.60;;
62616;SDS011;76316;51.190;6.808;2024-03-06T04:18:57;3.58;;;1.60;;
62616;SDS011;76316;51.190;6.808;2024-03-06T04:21:23;2.88;;;1.75;;
62616;SDS011;76316;51.190;6.808;2024-03-06T04:23:48;1.75;;;1.50;;
62616;SDS011;76316;51.190;6.808;2024-03-06T04:26:13;1.98;;;1.50;;
62616;SDS011;76316;51.190;6.808;2024-03-06T04:28:40;3.25;;;1.75;;
62616;SDS011;76316;51.190;6.808;2024-03-06T04:31:05;2.47;;;1.70;;
62616;SDS011;76316;51.190;6.808;2024-03-06T04:33:31;2.58;;;1.40;;
62616;SDS011;76316;51.190;6.808;2024-03-06T04:35:57;2.38;;;1.80;;
62616;SDS011;76316;51.190;6.808;2024-03-06T04:38:22;3.45;;;1.92;;
62616;SDS011;76316;51.190;6.808;2024-03-06T04:40:48;2.97;;;1.73;;
62616;SDS011;76316;51.190;6.808;2024-03-06T04:43:13;2.30;;;1.60;;
62616;SDS011;76316;51.190;6.808;2024-03-06T04:45:39;2.67;;;1.90;;
62616;SDS011;76316;51.190;6.808;2024-03-06T04:48:04;2.00;;;1.70;;
62616;SDS011;76316;51.190;6.808;2024-03-06T04:50:31;2.65;;;1.80;;
62616;SDS011;76316;51.190;6.808;2024-03-06T04:52:56;2.60;;;1.63;;
62616;SDS011;76316;51.190;6.808;2024-03-06T04:55:22;2.10;;;1.58;;
62616;SDS011;76316;51.190;6.808;2024-03-06T04:57:48;1.77;;;1.67;;
62616;SDS011;76316;51.190;6.808;2024-03-06T05:00:14;1.95;;;1.50;;
62616;SDS011;76316;51.190;6.808;2024-03-06T05:02:40;2.90;;;1.63;;
62616;SDS011;76316;51.190;6.808;2024-03-06T05:05:08;3.58;;;2.00;;
62616;SDS011;76316;51.190;6.808;2024-03-06T05:07:34;2.45;;;1.70;;
62616;SDS011;76316;51.190;6.808;2024-03-06T05:10:00;1.85;;;1.58;;
62616;SDS011;76316;51.190;6.808;2024-03-06T05:12:26;1.40;;;1.20;;
62616;SDS011;76316;51.190;6.808;2024-03-06T05:14:52;2.22;;;1.67;;
62616;SDS011;76316;51.190;6.808;2024-03-06T05:17:19;2.17;;;1.58;;
62616;SDS011;76316;51.190;6.808;2024-03-06T05:19:45;2.00;;;1.70;;
62616;SDS011;76316;51.190;6.808;2024-03-06T05:22:12;2.35;;;1.73;;
62616;SDS011;76316;51.190;6.808;2024-03-06T05:24:38;2.03;;;1.77;;
62616;SDS011;76316;51.190;6.808;2024-03-06T05:27:04;2.13;;;1.45;;
62616;SDS011;76316;51.190;6.808;2024-03-06T05:29:29;1.85;;;1.40;;
62616;SDS011;76316;51.190;6.808;2024-03-06T05:31:55;1.70;;;1.40;;
62616;SDS011;76316;51.190;6.808;2024-03-06T05:34:21;1.40;;;1.10;;
62616;SDS011;76316;51.190;6.808;2024-03-06T05:36:49;2.28;;;1.33;;
62616;SDS011;76316;51.190;6.808;2024-03-06T05:39:15;4.90;;;1.63;;
62616;SDS011;76316;51.190;6.808;2024-03-06T05:41:42;1.65;;;1.25;;
62616;SDS011;76316;51.190;6.808;2024-03-06T05:44:09;5.07;;;1.40;;
62616;SDS011;76316;51.190;6.808;2024-03-06T05:46:35;1.88;;;1.27;;
62616;SDS011;76316;51.190;6.808;2024-03-06T05:49:01;2.10;;;1.50;;
62616;SDS011;76316;51.190;6.808;2024-03-06T05:51:27;2.30;;;1.60;;
62616;SDS011;76316;51.190;6.808;2024-03-06T05:53:54;1.60;;;1.48;;
62616;SDS011;76316;51.190;6.808;2024-03-06T05:56:19;2.45;;;1.55;;
62616;SDS011;76316;51.190;6.808;2024-03-06T05:58:45;3.03;;;1.50;;
62616;SDS011;76316;51.190;6.808;2024-03-06T06:01:12;3.45;;;1.77;;
62616;SDS011;76316;51.190;6.808;2024-03-06T06:03:44;2.67;;;1.90;;
62616;SDS011;76316;51.190;6.808;2024-03-06T06:06:09;4.53;;;2.03;;
62616;SDS011;76316;51.190;6.808;2024-03-06T06:08:34;1.92;;;1.60;;
62616;SDS011;76316;51.190;6.808;2024-03-06T06:11:00;4.72;;;1.58;;
62616;SDS011;76316;51.190;6.808;2024-03-06T06:13:28;5.43;;;1.50;;
62616;SDS011;76316;51.190;6.808;2024-03-06T06:15:53;2.38;;;1.33;;
62616;SDS011;76316;51.190;6.808;2024-03-06T06:18:19;3.50;;;1.55;;
62616;SDS011;76316;51.190;6.808;2024-03-06T06:20:45;6.82;;;1.42;;
62616;SDS011;76316;51.190;6.808;2024-03-06T06:23:10;4.30;;;1.50;;
62616;SDS011;76316;51.190;6.808;2024-03-06T06:25:36;4.90;;;1.35;;
62616;SDS011;76316;51.190;6.808;2024-03-06T06:28:01;1.38;;;1.20;;
62616;SDS011;76316;51.190;6.808;2024-03-06T06:30:27;1.75;;;1.48;;
62616;SDS011;76316;51.190;6.808;2024-03-06T06:32:52;1.55;;;1.42;;
62616;SDS011;76316;51.190;6.808;2024-03-06T06:35:17;24.27;;;2.10;;
62616;SDS011;76316;51.190;6.808;2024-03-06T06:37:43;22.75;;;10.25;;
62616;SDS011;76316;51.190;6.808;2024-03-06T06:40:09;14.98;;;11.18;;
62616;SDS011;76316;51.190;6.808;2024-03-06T06:42:36;13.38;;;8.90;;
62616;SDS011;76316;51.190;6.808;2024-03-06T06:45:03;12.23;;;8.40;;
62616;SDS011;76316;51.190;6.808;2024-03-06T06:47:31;11.13;;;7.95;;
62616;SDS011;76316;51.190;6.808;2024-03-06T06:49:56;11.63;;;6.80;;
62616;SDS011;76316;51.190;6.808;2024-03-06T06:52:22;8.32;;;6.25;;
62616;SDS011;76316;51.190;6.808;2024-03-06T06:54:47;8.55;;;5.85;;
62616;SDS011;76316;51.190;6.808;2024-03-06T06:57:15;8.98;;;5.68;;
62616;SDS011;76316;51.190;6.808;2024-03-06T06:59:40;14.63;;;5.22;;
62616;SDS011;76316;51.190;6.808;2024-03-06T07:02:06;8.48;;;4.88;;
62616;SDS011;76316;51.190;6.808;2024-03-06T07:04:31;7.68;;;4.95;;
62616;SDS011;76316;51.190;6.808;2024-03-06T07:06:56;5.80;;;4.30;;
62616;SDS011;76316;51.190;6.808;2024-03-06T07:09:22;7.22;;;4.45;;
62616;SDS011;76316;51.190;6.808;2024-03-06T07:11:47;7.05;;;4.03;;
62616;SDS011;76316;51.190;6.808;2024-03-06T07:14:13;5.50;;;3.50;;
62616;SDS011;76316;51.190;6.808;2024-03-06T07:16:42;6.03;;;4.10;;
62616;SDS011;76316;51.190;6.808;2024-03-06T07:19:08;9.23;;;4.07;;
62616;SDS011;76316;51.190;6.808;2024-03-06T07:21:34;3.72;;;2.90;;
62616;SDS011;76316;51.190;6.808;2024-03-06T07:23:59;6.45;;;3.30;;
62616;SDS011;76316;51.190;6.808;2024-03-06T07:26:25;6.97;;;3.53;;
62616;SDS011;76316;51.190;6.808;2024-03-06T07:28:51;3.70;;;2.78;;
62616;SDS011;76316;51.190;6.808;2024-03-06T07:31:17;3.88;;;3.10;;
62616;SDS011;76316;51.190;6.808;2024-03-06T07:33:43;5.40;;;3.15;;
62616;SDS011;76316;51.190;6.808;2024-03-06T07:36:09;5.35;;;3.30;;
62616;SDS011;76316;51.190;6.808;2024-03-06T07:38:34;4.20;;;2.88;;
62616;SDS011;76316;51.190;6.808;2024-03-06T07:40:59;5.18;;;2.88;;
62616;SDS011;76316;51.190;6.808;2024-03-06T07:43:25;3.83;;;3.03;;
62616;SDS011;76316;51.190;6.808;2024-03-06T07:45:51;4.78;;;3.05;;
62616;SDS011;76316;51.190;6.808;2024-03-06T07:48:17;4.22;;;2.90;;
62616;SDS011;76316;51.190;6.808;2024-03-06T07:50:42;5.10;;;2.85;;
62616;SDS011;76316;51.190;6.808;2024-03-06T07:53:08;3.80;;;2.92;;
62616;SDS011;76316;51.190;6.808;2024-03-06T07:55:33;4.38;;;3.30;;
62616;SDS011;76316;51.190;6.808;2024-03-06T07:57:58;3.72;;;2.45;;
62616;SDS011;76316;51.190;6.808;2024-03-06T08:00:24;3.60;;;2.80;;
62616;SDS011;76316;51.190;6.808;2024-03-06T08:02:49;5.93;;;3.10;;
62616;SDS011;76316;51.190;6.808;2024-03-06T08:05:15;9.05;;;2.88;;
62616;SDS011;76316;51.190;6.808;2024-03-06T08:07:42;6.95;;;2.95;;
62616;SDS011;76316;51.190;6.808;2024-03-06T08:10:11;4.75;;;2.35;;
62616;SDS011;76316;51.190;6.808;2024-03-06T08:12:41;4.15;;;2.95;;
62616;SDS011;76316;51.190;6.808;2024-03-06T08:15:08;4.90;;;2.90;;
62616;SDS011;76316;51.190;6.808;2024-03-06T08:17:36;3.60;;;2.90;;
62616;SDS011;76316;51.190;6.808;2024-03-06T08:20:04;4.63;;;2.63;;
62616;SDS011;76316;51.190;6.808;2024-03-06T08:22:41;3.75;;;2.72;;
62616;SDS011;76316;51.190;6.808;2024-03-06T08:25:08;5.55;;;2.80;;
62616;SDS011;76316;51.190;6.808;2024-03-06T08:27:36;4.50;;;2.92;;
62616;SDS011;76316;51.190;6.808;2024-03-06T08:30:04;5.05;;;3.30;;
62616;SDS011;76316;51.190;6.808;2024-03-06T08:32:31;4.40;;;3.30;;
62616;SDS011;76316;51.190;6.808;2024-03-06T08:35:09;3.50;;;2.67;;
62616;SDS011;76316;51.190;6.808;2024-03-06T08:37:38;3.65;;;2.38;;
62616;SDS011;76316;51.190;6.808;2024-03-06T08:40:04;4.05;;;2.67;;
62616;SDS011;76316;51.190;6.808;2024-03-06T08:42:52;3.70;;;2.75;;
62616;SDS011;76316;51.190;6.808;2024-03-06T08:45:18;3.83;;;2.67;;
62616;SDS011;76316;51.190;6.808;2024-03-06T08:47:44;3.33;;;2.75;;
62616;SDS011;76316;51.190;6.808;2024-03-06T08:50:11;6.28;;;2.90;;
62616;SDS011;76316;51.190;6.808;2024-03-06T08:52:37;3.72;;;2.70;;
62616;SDS011;76316;51.190;6.808;2024-03-06T08:55:04;2.88;;;2.17;;
62616;SDS011;76316;51.190;6.808;2024-03-06T08:57:33;2.90;;;2.42;;
62616;SDS011;76316;51.190;6.808;2024-03-06T09:00:00;4.35;;;2.28;;
62616;SDS011;76316;51.190;6.808;2024-03-06T09:02:26;3.60;;;2.30;;
62616;SDS011;76316;51.190;6.808;2024-03-06T09:04:52;3.30;;;2.42;;
62616;SDS011;76316;51.190;6.808;2024-03-06T09:07:18;3.33;;;2.42;;
62616;SDS011;76316;51.190;6.808;2024-03-06T09:09:45;2.53;;;2.33;;
62616;SDS011;76316;51.190;6.808;2024-03-06T09:12:11;3.47;;;2.70;;
62616;SDS011;76316;51.190;6.808;2024-03-06T09:14:37;3.95;;;2.53;;
62616;SDS011;76316;51.190;6.808;2024-03-06T09:17:03;4.53;;;2.22;;
62616;SDS011;76316;51.190;6.808;2024-03-06T09:19:30;2.63;;;2.10;;
62616;SDS011;76316;51.190;6.808;2024-03-06T09:21:58;4.15;;;2.33;;
62616;SDS011;76316;51.190;6.808;2024-03-06T09:24:24;3.78;;;2.47;;
62616;SDS011;76316;51.190;6.808;2024-03-06T09:26:50;2.38;;;2.00;;
62616;SDS011;76316;51.190;6.808;2024-03-06T09:29:17;3.30;;;2.70;;
62616;SDS011;76316;51.190;6.808;2024-03-06T09:31:43;3.72;;;2.13;;
62616;SDS011;76316;51.190;6.808;2024-03-06T09:34:09;3.13;;;2.40;;
62616;SDS011;76316;51.190;6.808;2024-03-06T09:36:40;3.17;;;2.15;;
62616;SDS011;76316;51.190;6.808;2024-03-06T09:39:11;2.42;;;2.15;;
62616;SDS011;76316;51.190;6.808;2024-03-06T09:41:37;3.50;;;2.13;;
62616;SDS011;76316;51.190;6.808;2024-03-06T09:44:06;1.83;;;1.65;;
62616;SDS011;76316;51.190;6.808;2024-03-06T09:46:32;2.58;;;2.10;;
62616;SDS011;76316;51.190;6.808;2024-03-06T09:48:59;2.80;;;2.13;;
62616;SDS011;76316;51.190;6.808;2024-03-06T09:51:26;2.70;;;1.95;;
62616;SDS011;76316;51.190;6.808;2024-03-06T09:53:52;2.35;;;1.90;;
62616;SDS011;76316;51.190;6.808;2024-03-06T09:56:18;2.50;;;1.90;;
62616;SDS011;76316;51.190;6.808;2024-03-06T09:58:45;3.05;;;2.33;;
62616;SDS011;76316;51.190;6.808;2024-03-06T10:01:12;2.53;;;2.00;;
62616;SDS011;76316;51.190;6.808;2024-03-06T10:03:39;2.55;;;2.15;;
62616;SDS011;76316;51.190;6.808;2024-03-06T10:06:05;2.20;;;1.85;;
62616;SDS011;76316;51.190;6.808;2024-03-06T10:08:32;4.05;;;2.00;;
62616;SDS011;76316;51.190;6.808;2024-03-06T10:10:58;2.47;;;1.60;;
62616;SDS011;76316;51.190;6.808;2024-03-06T10:13:25;2.28;;;2.00;;
62616;SDS011;76316;51.190;6.808;2024-03-06T10:18:26;2.55;;;1.73;;
62616;SDS011;76316;51.190;6.808;2024-03-06T10:21:03;2.10;;;1.80;;
62616;SDS011;76316;51.190;6.808;2024-03-06T10:23:30;2.47;;;1.75;;
62616;SDS011;76316;51.190;6.808;2024-03-06T10:25:56;1.95;;;1.60;;
62616;SDS011;76316;51.190;6.808;2024-03-06T10:28:22;1.98;;;1.77;;
62616;SDS011;76316;51.190;6.808;2024-03-06T10:30:49;2.65;;;1.83;;
62616;SDS011;76316;51.190;6.808;2024-03-06T10:33:17;2.85;;;1.83;;
62616;SDS011;76316;51.190;6.808;2024-03-06T10:35:44;1.95;;;1.70;;
62616;SDS011;76316;51.190;6.808;2024-03-06T10:38:13;2.72;;;2.20;;
62616;SDS011;76316;51.190;6.808;2024-03-06T10:40:40;2.17;;;1.50;;
62616;SDS011;76316;51.190;6.808;2024-03-06T10:43:07;1.92;;;1.73;;
62616;SDS011;76316;51.190;6.808;2024-03-06T10:45:46;1.67;;;1.58;;
62616;SDS011;76316;51.190;6.808;2024-03-06T10:48:14;2.50;;;2.30;;
62616;SDS011;76316;51.190;6.808;2024-03-06T10:50:42;1.77;;;1.63;;
62616;SDS011;76316;51.190;6.808;2024-03-06T10:53:10;6.07;;;3.08;;
62616;SDS011;76316;51.190;6.808;2024-03-06T10:55:37;2.55;;;1.80;;
62616;SDS011;76316;51.190;6.808;2024-03-06T10:58:07;2.60;;;2.03;;
62616;SDS011;76316;51.190;6.808;2024-03-06T11:00:34;2.80;;;2.13;;
62616;SDS011;76316;51.190;6.808;2024-03-06T11:03:05;2.50;;;1.98;;
62616;SDS011;76316;51.190;6.808;2024-03-06T11:05:40;4.45;;;2.33;;
62616;SDS011;76316;51.190;6.808;2024-03-06T11:08:08;2.65;;;2.13;;
62616;SDS011;76316;51.190;6.808;2024-03-06T11:10:36;2.33;;;1.95;;
62616;SDS011;76316;51.190;6.808;2024-03-06T11:13:03;2.70;;;2.00;;
62616;SDS011;76316;51.190;6.808;2024-03-06T11:15:46;1.60;;;1.50;;
62616;SDS011;76316;51.190;6.808;2024-03-06T11:26:55;2.20;;;1.70;;
62616;SDS011;76316;51.190;6.808;2024-03-06T11:30:02;2.42;;;1.77;;
62616;SDS011;76316;51.190;6.808;2024-03-06T11:32:57;1.88;;;1.67;;
62616;SDS011;76316;51.190;6.808;2024-03-06T11:35:29;2.30;;;2.10;;
62616;SDS011;76316;51.190;6.808;2024-03-06T11:37:55;3.13;;;2.15;;
62616;SDS011;76316;51.190;6.808;2024-03-06T11:40:24;2.80;;;1.90;;
62616;SDS011;76316;51.190;6.808;2024-03-06T11:42:50;2.90;;;1.98;;
62616;SDS011;76316;51.190;6.808;2024-03-06T11:45:17;3.53;;;1.80;;
62616;SDS011;76316;51.190;6.808;2024-03-06T11:47:56;1.90;;;1.50;;
62616;SDS011;76316;51.190;6.808;2024-03-06T11:50:25;2.20;;;1.73;;
62616;SDS011;76316;51.190;6.808;2024-03-06T11:52:52;3.20;;;1.50;;
62616;SDS011;76316;51.190;6.808;2024-03-06T11:55:20;3.05;;;2.00;;
62616;SDS011;76316;51.190;6.808;2024-03-06T11:57:47;1.55;;;1.35;;
62616;SDS011;76316;51.190;6.808;2024-03-06T12:00:12;2.30;;;1.80;;
62616;SDS011;76316;51.190;6.808;2024-03-06T12:02:39;2.15;;;1.60;;
62616;SDS011;76316;51.190;6.808;2024-03-06T12:05:06;1.42;;;1.30;;
62616;SDS011;76316;51.190;6.808;2024-03-06T12:07:44;2.17;;;1.50;;
62616;SDS011;76316;51.190;6.808;2024-03-06T12:10:15;1.52;;;1.20;;
62616;SDS011;76316;51.190;6.808;2024-03-06T12:12:42;2.05;;;1.75;;
62616;SDS011;76316;51.190;6.808;2024-03-06T12:15:09;2.60;;;1.55;;
62616;SDS011;76316;51.190;6.808;2024-03-06T12:17:46;2.22;;;1.77;;
62616;SDS011;76316;51.190;6.808;2024-03-06T12:20:15;2.53;;;1.80;;
62616;SDS011;76316;51.190;6.808;2024-03-06T12:22:45;1.75;;;1.60;;
62616;SDS011;76316;51.190;6.808;2024-03-06T12:25:21;2.35;;;1.77;;
62616;SDS011;76316;51.190;6.808;2024-03-06T12:27:48;1.70;;;1.52;;
62616;SDS011;76316;51.190;6.808;2024-03-06T12:30:19;1.85;;;1.67;;
62616;SDS011;76316;51.190;6.808;2024-03-06T12:33:00;2.40;;;1.77;;
62616;SDS011;76316;51.190;6.808;2024-03-06T12:35:29;2.08;;;1.85;;
62616;SDS011;76316;51.190;6.808;2024-03-06T12:37:56;2.15;;;1.77;;
62616;SDS011;76316;51.190;6.808;2024-03-06T12:40:22;2.33;;;1.70;;
62616;SDS011;76316;51.190;6.808;2024-03-06T12:42:49;2.67;;;2.00;;
62616;SDS011;76316;51.190;6.808;2024-03-06T12:45:15;2.35;;;1.90;;
62616;SDS011;76316;51.190;6.808;2024-03-06T12:47:42;2.35;;;1.98;;
62616;SDS011;76316;51.190;6.808;2024-03-06T12:50:09;2.10;;;1.88;;
62616;SDS011;76316;51.190;6.808;2024-03-06T12:52:36;2.25;;;1.83;;
62616;SDS011;76316;51.190;6.808;2024-03-06T12:55:05;2.08;;;1.58;;
62616;SDS011;76316;51.190;6.808;2024-03-06T12:57:32;1.98;;;1.45;;
62616;SDS011;76316;51.190;6.808;2024-03-06T12:59:58;2.42;;;1.77;;
62616;SDS011;76316;51.190;6.808;2024-03-06T13:02:25;1.75;;;1.52;;
62616;SDS011;76316;51.190;6.808;2024-03-06T13:04:51;1.92;;;1.73;;
62616;SDS011;76316;51.190;6.808;2024-03-06T13:07:18;3.47;;;1.80;;
62616;SDS011;76316;51.190;6.808;2024-03-06T13:09:44;1.73;;;1.45;;
62616;SDS011;76316;51.190;6.808;2024-03-06T13:12:10;4.00;;;1.60;;
62616;SDS011;76316;51.190;6.808;2024-03-06T13:14:36;1.70;;;1.48;;
62616;SDS011;76316;51.190;6.808;2024-03-06T13:17:02;1.75;;;1.48;;
62616;SDS011;76316;51.190;6.808;2024-03-06T13:19:28;2.00;;;1.50;;
62616;SDS011;76316;51.190;6.808;2024-03-06T13:21:54;1.80;;;1.50;;
62616;SDS011;76316;51.190;6.808;2024-03-06T13:24:19;1.65;;;1.50;;
62616;SDS011;76316;51.190;6.808;2024-03-06T13:26:45;1.73;;;1.40;;
62616;SDS011;76316;51.190;6.808;2024-03-06T13:29:12;1.65;;;1.30;;
62616;SDS011;76316;51.190;6.808;2024-03-06T13:31:38;2.47;;;1.50;;
62616;SDS011;76316;51.190;6.808;2024-03-06T13:34:03;1.65;;;1.30;;
62616;SDS011;76316;51.190;6.808;2024-03-06T13:36:29;1.80;;;1.27;;
62616;SDS011;76316;51.190;6.808;2024-03-06T13:38:55;1.30;;;1.20;;
62616;SDS011;76316;51.190;6.808;2024-03-06T13:41:21;1.48;;;1.38;;
62616;SDS011;76316;51.190;6.808;2024-03-06T13:43:47;1.65;;;1.40;;
62616;SDS011;76316;51.190;6.808;2024-03-06T13:46:13;3.58;;;1.40;;
62616;SDS011;76316;51.190;6.808;2024-03-06T13:48:38;1.88;;;1.65;;
62616;SDS011;76316;51.190;6.808;2024-03-06T13:51:04;1.33;;;1.20;;
62616;SDS011;76316;51.190;6.808;2024-03-06T13:53:30;1.40;;;1.30;;
62616;SDS011;76316;51.190;6.808;2024-03-06T13:55:56;4.05;;;1.50;;
62616;SDS011;76316;51.190;6.808;2024-03-06T13:58:22;1.50;;;1.40;;
62616;SDS011;76316;51.190;6.808;2024-03-06T14:00:48;2.72;;;1.60;;
62616;SDS011;76316;51.190;6.808;2024-03-06T14:03:14;1.50;;;1.30;;
62616;SDS011;76316;51.190;6.808;2024-03-06T14:05:39;1.83;;;1.45;;
62616;SDS011;76316;51.190;6.808;2024-03-06T14:08:05;3.45;;;1.50;;
62616;SDS011;76316;51.190;6.808;2024-03-06T14:10:32;1.95;;;1.30;;
62616;SDS011;76316;51.190;6.808;2024-03-06T14:13:01;1.33;;;1.20;;
62616;SDS011;76316;51.190;6.808;2024-03-06T14:15:27;1.33;;;1.23;;
62616;SDS011;76316;51.190;6.808;2024-03-06T14:17:52;2.13;;;1.40;;
62616;SDS011;76316;51.190;6.808;2024-03-06T14:20:22;1.98;;;1.58;;
62616;SDS011;76316;51.190;6.808;2024-03-06T14:22:49;1.55;;;1.35;;
62616;SDS011;76316;51.190;6.808;2024-03-06T14:25:14;4.25;;;1.70;;
62616;SDS011;76316;51.190;6.808;2024-03-06T14:27:41;1.58;;;1.48;;
62616;SDS011;76316;51.190;6.808;2024-03-06T14:30:07;1.88;;;1.25;;
62616;SDS011;76316;51.190;6.808;2024-03-06T14:32:33;2.38;;;1.38;;
62616;SDS011;76316;51.190;6.808;2024-03-06T14:34:59;1.50;;;1.40;;
62616;SDS011;76316;51.190;6.808;2024-03-06T14:37:24;2.45;;;1.40;;
62616;SDS011;76316;51.190;6.808;2024-03-06T14:39:50;2.70;;;1.50;;
62616;SDS011;76316;51.190;6.808;2024-03-06T14:42:18;3.03;;;1.50;;
62616;SDS011;76316;51.190;6.808;2024-03-06T14:44:44;3.05;;;1.63;;
62616;SDS011;76316;51.190;6.808;2024-03-06T14:47:10;2.55;;;1.63;;
62616;SDS011;76316;51.190;6.808;2024-03-06T14:49:35;2.88;;;1.48;;
62616;SDS011;76316;51.190;6.808;2024-03-06T14:52:01;3.25;;;1.50;;
62616;SDS011;76316;51.190;6.808;2024-03-06T14:54:31;8.52;;;2.03;;
62616;SDS011;76316;51.190;6.808;2024-03-06T14:56:56;6.05;;;1.70;;